»·PEaware :: N1671Q KIFP-KIFP

N1671Q :: KIFP-KIFP

FLIGHT INFORMATION

Flight Status: Arrived
Operator: Privately registered:
United States
More flights under this callsign
Pilot: Gary H. (18965)
Aircraft: CESSNA 172 SKYHAWK
(C172)
More flights by this aircraft type
Origin: KIFP Laughlin/Bullhead Intl
United States
Destination: KIFP Laughlin/Bullhead Intl
United States
More flights between these airports :: More routes between these airports
Route: +
File this flight plan on PilotEdge
Remarks:
Altitude:
(Current/Filed)
0ft
Speed:
(Current/Filed)
0kts
Departed: 26-Jul-18 08:48 PM
Arrived: 26-Jul-18 09:44 PM
Distance/Time
Traveled:
0nm/0:56
Distance/Time
To Go:
Arrived

Flight Plot

Page will automatically refresh every two minutes.


Map Options




Map Legend


Flown Route
Filed Route
Departure Airport
Arrival Airport
Navaid (VOR, NDB)
Fix

Horizontal Profiles

Position Reports

Time Latitude Longitude Heading Altitude Ground
Speed
26-Jul-18 20:45 35.161616 -114.558451 359 656ft 15kts
26-Jul-18 20:46 35.166035 -114.558781 353 640ft 16kts
26-Jul-18 20:47 35.166269 -114.559000 265 638ft 0kts
26-Jul-18 20:48 35.166197 -114.559767 252 630ft 15kts
26-Jul-18 20:49 35.155127 -114.560073 174 970ft 63kts
26-Jul-18 20:50 35.136513 -114.561421 177 1685ft 68kts
26-Jul-18 20:51 35.115695 -114.565629 182 2096ft 81kts
26-Jul-18 20:52 35.093029 -114.568226 178 2212ft 82kts
26-Jul-18 20:53 35.070189 -114.567613 171 2128ft 86kts
26-Jul-18 20:54 35.046216 -114.570392 189 2120ft 89kts
26-Jul-18 20:55 35.021800 -114.576540 186 2160ft 91kts
26-Jul-18 20:56 34.996647 -114.582245 195 2043ft 92kts
26-Jul-18 20:57 34.973037 -114.593762 201 1917ft 91kts
26-Jul-18 20:58 34.949077 -114.603613 196 1785ft 92kts
26-Jul-18 20:59 34.924524 -114.614141 186 1252ft 96kts
26-Jul-18 21:00 34.900425 -114.615557 188 722ft 67kts
26-Jul-18 21:01 34.884479 -114.616264 184 606ft 70kts
26-Jul-18 21:02 34.865733 -114.621295 259 1177ft 76kts
26-Jul-18 21:03 34.883772 -114.629107 7 1412ft 94kts
26-Jul-18 21:04 34.904154 -114.622528 98 997ft 80kts
26-Jul-18 21:05 34.892293 -114.616051 189 481ft 52kts
26-Jul-18 21:06 34.873687 -114.617432 187 984ft 77kts
26-Jul-18 21:07 34.878730 -114.634179 6 1514ft 99kts
26-Jul-18 21:08 34.903620 -114.629714 14 1481ft 82kts
26-Jul-18 21:09 34.895451 -114.616092 183 574ft 64kts
26-Jul-18 21:10 34.880857 -114.616688 185 696ft 77kts
26-Jul-18 21:11 34.864810 -114.625730 277 1307ft 77kts
26-Jul-18 21:12 34.887103 -114.630903 4 1465ft 95kts
26-Jul-18 21:13 34.905072 -114.620317 106 1172ft 82kts
26-Jul-18 21:14 34.888506 -114.616276 187 483ft 61kts
26-Jul-18 21:15 34.868687 -114.619338 235 1162ft 76kts
26-Jul-18 21:16 34.884879 -114.630164 11 1841ft 92kts
26-Jul-18 21:17 34.911971 -114.624598 3 2087ft 106kts
26-Jul-18 21:18 34.939106 -114.620028 11 2150ft 111kts
26-Jul-18 21:19 34.950687 -114.617560 8 2172ft 111kts
26-Jul-18 21:20 34.975351 -114.612937 12 2118ft 113kts
26-Jul-18 21:21 34.982508 -114.610769 13 2142ft 110kts
26-Jul-18 21:22 35.012632 -114.604151 6 2120ft 109kts
26-Jul-18 21:23 35.042628 -114.598438 6 2016ft 103kts
26-Jul-18 21:24 35.069078 -114.593504 9 2321ft 94kts
26-Jul-18 21:25 35.096143 -114.586921 14 2285ft 107kts
26-Jul-18 21:26 35.125692 -114.580151 357 2165ft 104kts
26-Jul-18 21:27 35.152537 -114.580215 359 2140ft 90kts
26-Jul-18 21:28 35.177239 -114.579833 17 2138ft 89kts
26-Jul-18 21:29 35.171512 -114.560632 177 809ft 67kts
26-Jul-18 21:30 35.155682 -114.559836 177 881ft 68kts
26-Jul-18 21:31 35.144050 -114.550027 82 1426ft 79kts
26-Jul-18 21:32 35.164527 -114.542896 6 2097ft 86kts
26-Jul-18 21:33 35.182172 -114.551340 271 1604ft 87kts
26-Jul-18 21:34 35.165882 -114.560174 175 652ft 57kts
26-Jul-18 21:35 35.149218 -114.560671 182 1067ft 71kts
26-Jul-18 21:36 35.154609 -114.545793 357 1790ft 81kts
26-Jul-18 21:37 35.176057 -114.541370 18 2266ft 76kts
26-Jul-18 21:38 35.182543 -114.559085 205 1275ft 71kts
26-Jul-18 21:39 35.165718 -114.560176 176 638ft 50kts
26-Jul-18 21:40 35.149080 -114.558586 180 1127ft 69kts
26-Jul-18 21:41 35.153889 -114.545374 359 1840ft 80kts
26-Jul-18 21:42 35.175071 -114.541147 10 2242ft 75kts
26-Jul-18 21:43 35.187744 -114.552474 270 1677ft 78kts
26-Jul-18 21:44 35.172504 -114.560723 174 796ft 60kts
26-Jul-18 21:45 35.162261 -114.559100 35 647ft 9kts
26-Jul-18 21:46 35.162850 -114.558479 64 651ft 10kts

Navigation Log

Ident Type
Flight plan parsing failed, navigation log unavailable